Flight Track Log - Related Links

Times and Time Zones

All times are in EST time to prevent confusion due to time zone crossing. See the UCA4794 flight status page for this flight to view local times or setup timezone preferences in your user account.

Time Position Orientation Groundspeed Altitude Reporting Facility
EST Latitude Longitude Course Direction KTS MPH feet Rate Location/Type
Sun 01:31:03 PM 43.1078 -76.1189 262° West 107 123 1,200  Level Boston Center
Sun 01:31:09 PM 43.1075 -76.1217 262° West 96 110 1,400 1,343 Climbing Boston Center
Sun 01:32:10 PM 43.0883 -76.1581 234° Southwest 173 199 2,700 1,339 Climbing Boston Center
Sun 01:33:10 PM 43.0492 -76.1131 140° Southeast 184 212 4,100 1,475 Climbing Boston Center
Sun 01:34:12 PM 43.0092 -76.0647 139° Southeast 188 216 5,700 1,707 Climbing Boston Center
Sun 01:35:13 PM 42.9681 -76.0164 139° Southeast 193 222 7,600 1,686 Climbing Boston Center
Sun 01:36:13 PM 42.9297 -75.9692 138° Southeast 189 217 9,100 1,388 Climbing Boston Center
Sun 01:37:14 PM 42.8878 -75.9250 142° Southeast 191 220 10,400 1,140 Climbing Boston Center
Sun 01:38:14 PM 42.8389 -75.8783 145° Southeast 211 243 11,400 1,140 Climbing Boston Center
Sun 01:39:15 PM 42.7897 -75.8286 143° Southeast 220 253 12,700 1,210 Climbing Boston Center
Sun 01:40:18 PM 42.7361 -75.7894 152° Southeast 220 253 13,900 1,113 Climbing Boston Center
Sun 01:41:19 PM 42.6725 -75.7461 153° Southeast 215 247 15,000 545 Climbing Boston Center
Sun 01:42:19 PM 42.6111 -75.7022 152° Southeast 246 283 15,000  Level Boston Center
Sun 01:43:21 PM 42.5444 -75.6556 153° Southeast 267 307 15,000  Level Boston Center
Sun 01:44:22 PM 42.4789 -75.6083 152° Southeast 268 308 15,000  Level Boston Center
Sun 01:45:22 PM 42.4139 -75.5611 152° Southeast 266 306 15,000  Level Boston Center
Sun 01:46:22 PM 42.3489 -75.5156 153° Southeast 265 305 15,000 -145 Level Boston Center
Sun 01:47:26 PM 42.2883 -75.4742 153° Southeast 263 303 14,700 -672 Descending Boston Center
Sun 01:48:27 PM 42.2192 -75.4267 153° Southeast 271 312 13,600 -836 Descending Boston Center
Sun 01:49:28 PM 42.1372 -75.3692 153° Southeast 277 319 13,000 -295 Descending Boston Center
Sun 01:50:29 PM 42.0733 -75.3233 152° Southeast 267 307 13,000  Level Boston Center
Sun 01:51:30 PM 42.0300 -75.2325 123° Southeast 293 337 13,000  Level Boston Center
Sun 01:52:31 PM 41.9942 -75.1325 116° Southeast 299 344 13,000  Level Boston Center
Sun 01:53:32 PM 41.9519 -75.0225 117° Southeast 305 351 13,000 -195 Level Boston Center
Sun 01:54:34 PM 41.9136 -74.9228 117° Southeast 303 349 12,600 -639 Descending Boston Center
Sun 01:55:34 PM 41.8728 -74.8147 117° Southeast 322 371 11,700 -942 Descending Boston Center
Sun 01:56:35 PM 41.8317 -74.7056 117° Southeast 328 377 10,700 -1,041 Descending Boston Center
Sun 01:57:35 PM 41.7878 -74.5928 118° Southeast 318 366 9,600 -1,091 Descending Boston Center
Sun 01:58:36 PM 41.7300 -74.5411 146° Southeast 257 296 8,500 -960 Descending Boston Center
Sun 01:59:40 PM 41.6642 -74.5461 183° South 239 275 7,600 -919 Descending Boston Center
Sun 02:00:40 PM 41.5958 -74.5578 187° South 246 283 6,600 -800 Descending Boston Center
Sun 02:01:40 PM 41.5222 -74.5711 188° South 249 287 6,000 -298 Descending Boston Center
Sun 02:02:41 PM 41.4572 -74.5839 188° South 239 275 6,000  Level Boston Center
Sun 02:03:42 PM 41.3919 -74.5978 189° South 237 273 6,000  Level Boston Center
Sun 02:04:45 PM 41.3261 -74.6244 197° South 232 267 6,000 -242 Level Boston Center
Sun 02:05:46 PM 41.2614 -74.6183 176° South 257 296 5,500 -496 Descending Boston Center
Sun 02:06:46 PM 41.1983 -74.5678 149° Southeast 265 305 5,000 -221 Descending Boston Center
Sun 02:08:02 PM 41.1333 -74.4667 130° Southeast 263 303 5,000  Level New York TRACON
Sun 02:09:02 PM 41.0833 -74.4000 135° Southeast 260 299 5,000  Level New York TRACON
Sun 02:09:56 PM 41.0333 -74.3333 135° Southeast 261 300 5,000  Level New York TRACON
Sun 02:10:56 PM 41.0000 -74.2667 124° Southeast 254 292 5,000 -150 Level New York TRACON
Sun 02:11:56 PM 40.9500 -74.2000 135° Southeast 221 254 4,700 -500 Descending New York TRACON
Sun 02:12:56 PM 40.9167 -74.1500 131° Southeast 212 244 4,000 -500 Descending New York TRACON
Sun 02:13:56 PM 40.8667 -74.1000 143° Southeast 210 242 3,700 -650 Descending New York TRACON
Sun 02:14:56 PM 40.8167 -74.1000 180° South 180 207 2,700 -947 Descending New York TRACON
Sun 02:15:50 PM 40.7833 -74.1167 201° Southwest 169 194 1,900 -895 Descending New York TRACON
Sun 02:16:50 PM 40.7333 -74.1333 194° South 158 182 1,000 -900 Descending New York TRACON
Sun 02:18:00 PM 40.6833 -74.1667 166° South  Level FlightAware Approximate
Sun 02:25:00 PM 40.6925 -74.1687 166° South  Level Estimated

Login

Don't have an account? Register now (free) for customized features, flight alerts, and more!